Aérodrome :
LOGIN :

S'inscrire | Disclaimer

   EN    FR    IT 

 










Légende :    VFR   VFR Marginal   IFR   IFR Intensif   IFR Très Intensif
Visi : 
Plafond : 
>= 8 km
>= 3000ft
5 à 8 km
1000 à 3000 ft
1500m à 5 km
500 à 1000 ft
800 à 1500m
200 à 500 ft
< 800m
< 200 ft
Symboles :   Orages  Brouillard  Fortes neiges  Fortes précipitations  Vent > 20 kt
SIGMETs :   Divers  Orages  Givrage  Turbulence  Onde Orograph.  Cendres Volcan.







- Altitude de l'aérodrome : 776 ft
- Code IATA : RMS


ETAR - Ramstein Air Base

DERNIER METAR :
  • 230556Z AUTO 00000KT 9999 CLR M02/M03 A3035 RMK AO2 SLP288 T10201030 10001 21030 53003 $

METARs EXPIRÉS :
  • 230456Z AUTO 00000KT 9999 CLR M02/M03 A3034 RMK AO2 SLP284 T10211031 $
  • 230356Z AUTO 00000KT 9999 CLR M02/M03 A3034 RMK AO2 SLP283 T10201030 $

TAF TAF ETAR
Valide du 23 à 02h jusqu'au 24 à 08h UTC


230204Z 2302/2408 VRB06KT 9999 SKC QNH3033INS
BECMG 2314/2315 02009KT 9999 FEW050 QNH3031INS
BECMG 2317/2318 03009KT 9999 BKN030 QNH3029INS TX15/2314Z TNM01/2302Z
Pas de NOTAMs connus pour ce terrain.



MET'MAP, la Météo Aéronautique d'un coup d'oeil ! - Copyright ORBIFLY Décembre 2007 - Disclaimer

ORBIFLY MET'MAP TEAM :

Programmation & Développement : Alexandra Zaïnal
Conception & Développement : Baudouin d'Aumeries
Co-Programmation & Développement : Marc-Olivier Méhu
Soutien technique & logistique : Manuel Goepfert

Contact : metmap@orbifly.com




SOURCES & CREDITS :

   NOAA